createdAt,value
2018-02-10T00:00:44.552Z,29.20
2018-02-10T00:03:10.773Z,29.83
2018-02-10T00:05:37.144Z,30.40
2018-02-10T00:08:03.474Z,27.93
2018-02-10T00:10:29.912Z,28.90
2018-02-10T00:12:56.153Z,30.13
2018-02-10T00:15:22.662Z,29.40
2018-02-10T00:17:49.089Z,28.17
2018-02-10T00:20:15.481Z,29.53
2018-02-10T00:22:41.794Z,29.63
2018-02-10T00:25:08.932Z,30.10
2018-02-10T00:27:35.874Z,28.73
2018-02-10T00:30:02.905Z,30.60
2018-02-10T00:32:29.927Z,29.93
2018-02-10T00:34:56.364Z,29.40
2018-02-10T00:37:22.593Z,30.60
2018-02-10T00:39:48.818Z,29.20
2018-02-10T00:42:15.191Z,29.70
2018-02-10T00:44:42.395Z,30.57
2018-02-10T00:47:08.665Z,30.87
2018-02-10T00:49:35.726Z,29.93
2018-02-10T00:52:02.046Z,29.07
2018-02-10T00:54:28.957Z,29.40
2018-02-10T00:57:10.194Z,31.50
2018-02-10T00:59:36.478Z,28.10
2018-02-10T01:02:03.473Z,28.87
2018-02-10T01:04:29.838Z,28.30
2018-02-10T01:06:56.278Z,30.30
2018-02-10T01:09:23.499Z,28.77
2018-02-10T01:11:49.889Z,28.47
2018-02-10T01:14:16.123Z,29.70
2018-02-10T01:16:42.388Z,28.47
2018-02-10T01:19:08.823Z,27.60
2018-02-10T01:21:35.150Z,29.90
2018-02-10T01:24:01.456Z,29.20
2018-02-10T01:26:27.709Z,29.70
2018-02-10T01:28:53.927Z,27.50
2018-02-10T01:31:20.219Z,30.20
2018-02-10T01:33:46.520Z,30.47
2018-02-10T01:36:12.816Z,28.77
2018-02-10T01:38:39.011Z,29.30
2018-02-10T01:41:05.303Z,29.03
2018-02-10T01:43:31.613Z,29.33
2018-02-10T01:45:58.623Z,29.00
2018-02-10T01:48:25.035Z,27.53
2018-02-10T01:50:51.349Z,28.07
2018-02-10T01:53:17.857Z,28.33
2018-02-10T01:55:44.985Z,28.40
2018-02-10T01:58:11.428Z,27.50
2018-02-10T02:00:38.416Z,28.00
2018-02-10T02:03:04.906Z,28.73
2018-02-10T02:05:31.964Z,29.03
2018-02-10T02:07:59.028Z,29.97
2018-02-10T02:10:25.519Z,30.57
2018-02-10T02:12:51.915Z,28.80
2018-02-10T02:15:18.506Z,28.37
2018-02-10T02:17:45.515Z,29.10
2018-02-10T02:20:11.804Z,27.87
2018-02-10T02:22:38.733Z,28.30
2018-02-10T02:25:05.950Z,28.97
2018-02-10T02:27:32.202Z,29.73
2018-02-10T02:30:00.042Z,27.20
2018-02-10T02:32:26.342Z,26.50
2018-02-10T02:34:52.512Z,28.07
2018-02-10T02:37:19.653Z,27.97
2018-02-10T02:39:45.899Z,28.80
2018-02-10T02:42:13.084Z,27.40
2018-02-10T02:44:39.314Z,28.47
2018-02-10T02:47:05.603Z,28.63
2018-02-10T02:49:31.931Z,29.67
2018-02-10T02:51:59.056Z,28.80
2018-02-10T02:54:25.278Z,29.20
2018-02-10T02:56:51.484Z,27.80
2018-02-10T02:59:17.728Z,28.03
2018-02-10T03:01:43.999Z,27.70
2018-02-10T03:04:10.163Z,31.07
2018-02-10T03:06:36.660Z,27.87
2018-02-10T03:09:03.056Z,29.47
2018-02-10T03:11:29.315Z,32.10
2018-02-10T03:13:56.843Z,30.30
2018-02-10T03:16:23.991Z,31.00
2018-02-10T03:18:50.234Z,28.47
2018-02-10T03:21:16.480Z,28.90
2018-02-10T03:23:43.543Z,28.97
2018-02-10T03:26:09.927Z,27.33
2018-02-10T03:28:36.932Z,29.30
2018-02-10T03:31:03.398Z,28.50
2018-02-10T03:33:30.424Z,28.57
2018-02-10T03:35:56.756Z,27.30
2018-02-10T03:38:23.006Z,30.53
2018-02-10T03:40:49.316Z,27.47
2018-02-10T03:43:15.749Z,27.03
2018-02-10T03:45:41.978Z,27.20
2018-02-10T03:48:08.401Z,28.17
2018-02-10T03:50:34.683Z,27.27
2018-02-10T03:53:00.970Z,25.37
2018-02-10T03:55:27.290Z,24.80
2018-02-10T03:57:53.774Z,25.27
2018-02-10T04:00:20.180Z,24.40
2018-02-10T04:02:47.300Z,20.10
2018-02-10T04:05:13.521Z,25.03
2018-02-10T04:07:39.783Z,22.33
2018-02-10T04:10:06.707Z,23.43
2018-02-10T04:12:32.918Z,19.33
2018-02-10T04:14:59.166Z,21.17
2018-02-10T04:17:26.296Z,18.37
2018-02-10T04:19:52.496Z,18.23
2018-02-10T04:22:18.685Z,18.60
2018-02-10T04:24:45.738Z,20.03
2018-02-10T04:27:12.839Z,17.93
2018-02-10T04:29:39.272Z,18.90
2018-02-10T04:32:05.559Z,17.67
2018-02-10T04:34:31.873Z,17.17
2018-02-10T04:36:58.062Z,17.67
2018-02-10T04:39:24.380Z,17.27
2018-02-10T04:41:50.584Z,17.50
2018-02-10T04:44:16.857Z,17.73
2018-02-10T04:46:43.815Z,16.30
2018-02-10T04:49:10.779Z,18.70
2018-02-10T04:51:37.052Z,16.90
2018-02-10T04:54:03.249Z,16.60
2018-02-10T04:56:29.553Z,19.13
2018-02-10T04:59:03.001Z,16.97
2018-02-10T05:01:29.263Z,15.80
2018-02-10T05:03:56.147Z,15.70
2018-02-10T05:06:22.436Z,17.57
2018-02-10T05:08:49.410Z,18.23
2018-02-10T05:11:15.710Z,18.23
2018-02-10T05:13:42.722Z,19.00
2018-02-10T05:16:08.960Z,16.37
2018-02-10T05:18:35.247Z,17.70
2018-02-10T05:21:01.704Z,16.50
2018-02-10T05:23:27.957Z,18.40
2018-02-10T05:25:54.183Z,17.13
2018-02-10T05:28:21.147Z,18.30
2018-02-10T05:30:47.441Z,15.97
2018-02-10T05:33:13.762Z,15.40
2018-02-10T05:35:40.166Z,17.63
2018-02-10T05:38:06.372Z,17.00
2018-02-10T05:40:32.709Z,17.73
2018-02-10T05:42:59.105Z,15.90
2018-02-10T05:45:26.203Z,16.70
2018-02-10T05:47:52.490Z,17.43
2018-02-10T05:50:19.596Z,17.50
2018-02-10T05:52:45.888Z,16.40
2018-02-10T05:55:12.236Z,15.43
2018-02-10T05:57:38.763Z,16.80
2018-02-10T06:00:05.076Z,16.10
2018-02-10T06:02:31.343Z,15.47
2018-02-10T06:04:57.758Z,15.40
2018-02-10T06:07:23.976Z,15.53
2018-02-10T06:09:50.276Z,13.83
2018-02-10T06:12:17.418Z,14.43
2018-02-10T06:14:44.558Z,16.17
2018-02-10T06:17:11.601Z,14.63
2018-02-10T06:19:37.904Z,16.50
2018-02-10T06:22:04.128Z,15.97
2018-02-10T06:24:30.425Z,16.57
2018-02-10T06:26:56.651Z,16.10
2018-02-10T06:29:23.316Z,15.50
2018-02-10T06:31:49.652Z,16.70
2018-02-10T06:34:16.090Z,15.70
2018-02-10T06:36:42.413Z,16.40
2018-02-10T06:39:08.710Z,17.00
2018-02-10T06:41:34.903Z,16.60
2018-02-10T06:44:01.894Z,15.90
2018-02-10T06:46:28.313Z,15.57
2018-02-10T06:48:54.885Z,14.87
2018-02-10T06:51:21.169Z,15.50
2018-02-10T06:53:48.054Z,15.27
2018-02-10T06:56:15.820Z,16.33
2018-02-10T06:58:42.159Z,16.00
2018-02-10T07:01:09.287Z,16.13
2018-02-10T07:03:35.550Z,16.73
2018-02-10T07:06:02.593Z,15.77
2018-02-10T07:08:29.713Z,15.40
2018-02-10T07:10:56.134Z,16.27
2018-02-10T07:13:22.743Z,17.60
2018-02-10T07:15:49.034Z,16.87
2018-02-10T07:18:16.049Z,15.73
2018-02-10T07:20:58.061Z,15.20
2018-02-10T07:23:26.349Z,17.30
2018-02-10T07:25:53.994Z,18.00
2018-02-10T07:28:21.091Z,25.10
2018-02-10T07:30:47.302Z,27.20
2018-02-10T07:33:14.000Z,29.30
2018-02-10T07:35:41.144Z,26.57
2018-02-10T07:38:07.351Z,24.40
2018-02-10T07:40:34.043Z,22.47
2018-02-10T07:43:00.326Z,21.70
2018-02-10T07:45:26.694Z,23.27
2018-02-10T07:47:52.953Z,21.93
2018-02-10T07:50:19.318Z,22.90
2018-02-10T07:52:46.247Z,22.33
2018-02-10T07:55:12.542Z,25.90
2018-02-10T07:57:38.811Z,27.00
2018-02-10T08:00:05.138Z,21.67
2018-02-10T08:02:38.977Z,22.60
2018-02-10T08:05:06.179Z,19.37
2018-02-10T08:07:32.676Z,21.23
2018-02-10T08:09:59.770Z,20.07
2018-02-10T08:12:26.146Z,19.80
2018-02-10T08:14:53.195Z,20.33
2018-02-10T08:17:19.593Z,25.60
2018-02-10T08:19:47.651Z,29.60
2018-02-10T08:22:14.718Z,38.57
2018-02-10T08:24:41.014Z,32.70
2018-02-10T08:27:07.303Z,32.70
2018-02-10T08:29:33.525Z,28.53
2018-02-10T08:31:59.868Z,27.20
2018-02-10T08:34:26.185Z,31.97
2018-02-10T08:36:52.518Z,23.73
2018-02-10T08:39:18.893Z,24.47
2018-02-10T08:41:45.111Z,26.13
2018-02-10T08:44:11.388Z,26.10
2018-02-10T08:46:38.395Z,22.90
2018-02-10T08:49:04.722Z,16.70
2018-02-10T08:51:31.043Z,17.10
2018-02-10T08:53:57.713Z,15.30
2018-02-10T08:56:24.231Z,14.60
2018-02-10T08:58:51.204Z,15.03
2018-02-10T09:01:18.421Z,14.73
2018-02-10T09:03:44.649Z,18.13
2018-02-10T09:06:12.404Z,18.17
2018-02-10T09:08:38.933Z,13.13
2018-02-10T09:11:05.267Z,13.93
2018-02-10T09:13:31.536Z,12.97
2018-02-10T09:15:58.506Z,13.97
2018-02-10T09:18:24.866Z,14.70
2018-02-10T09:20:51.270Z,12.63
2018-02-10T09:23:18.344Z,13.63
2018-02-10T09:25:44.730Z,12.87
2018-02-10T09:28:10.977Z,14.20
2018-02-10T09:30:37.416Z,12.47
2018-02-10T09:33:03.768Z,13.50
2018-02-10T09:35:30.054Z,13.83
2018-02-10T09:37:56.667Z,13.40
2018-02-10T09:40:23.807Z,12.50
2018-02-10T09:42:50.835Z,13.80
2018-02-10T09:45:17.296Z,12.60
2018-02-10T09:47:44.614Z,12.60
2018-02-10T09:50:11.024Z,13.10
2018-02-10T09:52:37.499Z,13.90
2018-02-10T09:55:04.475Z,13.03
2018-02-10T09:57:30.771Z,15.40
2018-02-10T09:59:57.918Z,11.97
2018-02-10T10:02:24.463Z,11.70
2018-02-10T10:04:51.647Z,11.17
2018-02-10T10:07:18.220Z,10.50
2018-02-10T10:09:46.089Z,11.10
2018-02-10T10:12:12.531Z,10.50
2018-02-10T10:14:40.729Z,14.17
2018-02-10T10:17:07.219Z,15.47
2018-02-10T10:19:35.000Z,20.37
2018-02-10T10:22:01.349Z,17.00
2018-02-10T10:24:27.643Z,12.73
2018-02-10T10:26:53.937Z,12.07
2018-02-10T10:29:20.511Z,13.83
2018-02-10T10:31:46.922Z,12.67
2018-02-10T10:34:13.220Z,13.43
2018-02-10T10:36:39.490Z,13.83
2018-02-10T10:39:07.364Z,13.60
2018-02-10T10:41:35.062Z,16.53
2018-02-10T10:44:01.282Z,14.97
2018-02-10T10:46:28.455Z,15.70
2018-02-10T10:48:54.825Z,18.93
2018-02-10T10:51:21.107Z,20.50
2018-02-10T10:53:47.398Z,20.03
2018-02-10T10:56:21.465Z,18.63
2018-02-10T10:58:47.992Z,19.70
2018-02-10T11:01:14.307Z,18.43
2018-02-10T11:03:40.734Z,18.13
2018-02-10T11:06:07.267Z,17.53
2018-02-10T11:08:33.631Z,17.17
2018-02-10T11:11:00.746Z,16.70
2018-02-10T11:13:28.184Z,16.63
2018-02-10T11:15:54.613Z,16.30
2018-02-10T11:18:22.499Z,15.73
2018-02-10T11:20:49.155Z,18.30
2018-02-10T11:23:15.498Z,16.43
2018-02-10T11:25:41.880Z,19.40
2018-02-10T11:28:08.568Z,25.00
2018-02-10T11:30:34.839Z,19.30
2018-02-10T11:33:01.888Z,17.97
2018-02-10T11:35:28.365Z,17.43
2018-02-10T11:37:54.704Z,17.67
2018-02-10T11:40:21.003Z,18.73
2018-02-10T11:42:47.258Z,19.93
2018-02-10T11:45:13.584Z,23.30
2018-02-10T11:47:39.866Z,19.60
2018-02-10T11:50:06.985Z,19.03
2018-02-10T11:52:34.073Z,18.90
2018-02-10T11:55:00.336Z,21.40
2018-02-10T11:57:26.870Z,18.87
2018-02-10T11:59:53.608Z,17.90
2018-02-10T12:02:20.150Z,21.03
2018-02-10T12:04:47.089Z,19.10
2018-02-10T12:07:13.627Z,17.60
2018-02-10T12:09:41.149Z,18.10
2018-02-10T12:12:07.736Z,22.03
2018-02-10T12:14:36.505Z,21.53
2018-02-10T12:17:02.705Z,24.43
2018-02-10T12:19:29.099Z,26.90
2018-02-10T12:21:56.409Z,21.63
2018-02-10T12:24:22.785Z,21.80
2018-02-10T12:26:49.742Z,19.63
2018-02-10T12:29:16.063Z,21.10
2018-02-10T12:31:42.411Z,22.23
2018-02-10T12:34:08.668Z,22.50
2018-02-10T12:36:35.651Z,21.90
2018-02-10T12:39:02.638Z,20.80
2018-02-10T12:41:29.010Z,21.13
2018-02-10T12:43:55.749Z,21.57
2018-02-10T12:46:22.223Z,20.20
2018-02-10T12:48:54.614Z,20.43
2018-02-10T12:51:20.949Z,22.30
2018-02-10T12:53:47.433Z,19.57
2018-02-10T12:56:13.932Z,19.37
2018-02-10T12:58:40.427Z,20.17
2018-02-10T13:01:06.930Z,18.97
2018-02-10T13:03:34.323Z,22.20
2018-02-10T13:06:00.697Z,21.17
2018-02-10T13:08:27.058Z,18.20
2018-02-10T13:10:53.437Z,19.47
2018-02-10T13:13:19.866Z,18.40
2018-02-10T13:15:47.544Z,18.47
2018-02-10T13:18:13.927Z,18.60
2018-02-10T13:20:40.148Z,19.40
2018-02-10T13:23:07.450Z,19.87
2018-02-10T13:25:34.759Z,19.40
2018-02-10T13:28:01.288Z,19.50
2018-02-10T13:30:27.751Z,19.40
2018-02-10T13:32:54.186Z,20.03
2018-02-10T13:35:21.639Z,19.60
2018-02-10T13:37:47.969Z,18.83
2018-02-10T13:40:14.409Z,21.13
2018-02-10T13:42:40.801Z,19.17
2018-02-10T13:45:07.367Z,19.00
2018-02-10T13:47:33.772Z,20.23
2018-02-10T13:50:00.688Z,21.47
2018-02-10T13:52:26.919Z,19.60
2018-02-10T13:54:53.340Z,19.50
2018-02-10T13:57:20.360Z,20.03
2018-02-10T13:59:46.605Z,19.77
2018-02-10T14:02:13.673Z,19.47
2018-02-10T14:04:39.892Z,20.10
2018-02-10T14:07:06.909Z,20.60
2018-02-10T14:09:33.551Z,19.00
2018-02-10T14:11:59.960Z,20.50
2018-02-10T14:14:26.367Z,19.40
2018-02-10T14:16:52.655Z,21.43
2018-02-10T14:19:19.678Z,22.10
2018-02-10T14:21:47.838Z,22.03
2018-02-10T14:24:14.112Z,20.47
2018-02-10T14:26:40.491Z,22.47
2018-02-10T14:29:06.772Z,23.30
2018-02-10T14:31:33.146Z,20.67
2018-02-10T14:33:59.586Z,20.80
2018-02-10T14:36:26.116Z,23.60
2018-02-10T14:38:52.563Z,22.53
2018-02-10T14:41:20.378Z,23.10
2018-02-10T14:43:46.837Z,21.47
2018-02-10T14:46:13.325Z,23.87
2018-02-10T14:48:39.716Z,24.23
2018-02-10T14:51:05.919Z,20.40
2018-02-10T14:53:32.433Z,23.57
2018-02-10T14:55:59.826Z,24.90
2018-02-10T14:58:27.883Z,23.03
2018-02-10T15:00:54.316Z,23.13
2018-02-10T15:03:21.097Z,23.97
2018-02-10T15:05:48.229Z,23.30
2018-02-10T15:08:14.833Z,24.00
2018-02-10T15:10:41.577Z,25.30
2018-02-10T15:13:08.150Z,22.80
2018-02-10T15:15:35.262Z,25.80
2018-02-10T15:18:01.702Z,24.27
2018-02-10T15:20:28.117Z,24.90
2018-02-10T15:22:54.553Z,23.70
2018-02-10T15:25:21.056Z,23.10
2018-02-10T15:27:47.415Z,23.60
2018-02-10T15:30:26.256Z,25.23
2018-02-10T15:33:04.708Z,25.43
2018-02-10T15:35:31.187Z,26.17
2018-02-10T15:37:57.611Z,27.60
2018-02-10T15:40:24.156Z,26.57
2018-02-10T15:42:50.615Z,25.73
2018-02-10T15:45:17.664Z,31.37
2018-02-10T15:47:45.094Z,30.27
2018-02-10T15:50:11.743Z,29.77
2018-02-10T15:52:38.880Z,34.13
2018-02-10T15:55:05.351Z,38.33
2018-02-10T15:57:31.838Z,33.20
2018-02-10T15:59:58.381Z,33.83
2018-02-10T16:02:24.828Z,33.50
2018-02-10T16:04:52.973Z,32.97
2018-02-10T16:07:19.534Z,32.70
2018-02-10T16:09:46.238Z,33.37
2018-02-10T16:12:12.656Z,32.27
2018-02-10T16:14:39.318Z,30.80
2018-02-10T16:17:05.575Z,30.87
2018-02-10T16:19:32.656Z,32.57
2018-02-10T16:21:59.161Z,32.73
2018-02-10T16:24:26.255Z,32.40
2018-02-10T16:26:52.510Z,30.60
2018-02-10T16:29:18.973Z,28.60
2018-02-10T16:31:46.066Z,32.50
2018-02-10T16:34:12.451Z,27.23
2018-02-10T16:36:39.553Z,29.77
2018-02-10T16:39:05.778Z,28.17
2018-02-10T16:41:32.075Z,28.47
2018-02-10T16:43:58.549Z,26.87
2018-02-10T16:46:24.922Z,26.63
2018-02-10T16:48:51.230Z,28.10
2018-02-10T16:51:18.176Z,26.77
2018-02-10T16:53:45.145Z,29.03
2018-02-10T16:56:11.476Z,24.43
2018-02-10T16:58:37.844Z,24.07
2018-02-10T17:01:04.047Z,29.80
2018-02-10T17:03:30.317Z,25.27
2018-02-10T17:05:58.607Z,26.53
2018-02-10T17:08:25.808Z,24.57
2018-02-10T17:10:52.094Z,24.50
2018-02-10T17:13:19.152Z,25.80
2018-02-10T17:15:45.409Z,29.53
2018-02-10T17:18:11.627Z,26.53
2018-02-10T17:20:37.974Z,23.70
2018-02-10T17:23:04.357Z,25.40
2018-02-10T17:25:30.873Z,25.80
2018-02-10T17:27:58.298Z,25.13
2018-02-10T17:30:24.769Z,24.53
2018-02-10T17:32:51.899Z,23.90
2018-02-10T17:35:18.718Z,24.60
2018-02-10T17:37:45.196Z,24.03
2018-02-10T17:40:12.414Z,24.77
2018-02-10T17:42:40.299Z,24.60
2018-02-10T17:45:07.310Z,24.60
2018-02-10T17:47:33.647Z,23.43
2018-02-10T17:49:59.972Z,24.47
2018-02-10T17:52:26.403Z,23.60
2018-02-10T17:54:52.878Z,25.80
2018-02-10T17:57:19.877Z,22.47
2018-02-10T17:59:46.121Z,22.93
2018-02-10T18:02:13.166Z,24.47
2018-02-10T18:04:39.712Z,21.80
2018-02-10T18:07:06.730Z,21.23
2018-02-10T18:09:33.366Z,24.20
2018-02-10T18:11:59.707Z,20.80
2018-02-10T18:14:26.079Z,20.83
2018-02-10T18:16:53.382Z,19.50
2018-02-10T18:19:21.239Z,19.53
2018-02-10T18:21:47.658Z,18.00
2018-02-10T18:24:14.079Z,19.43
2018-02-10T18:26:40.578Z,21.90
2018-02-10T18:29:07.300Z,19.57
2018-02-10T18:31:40.729Z,19.40
2018-02-10T18:34:06.959Z,23.00
2018-02-10T18:36:33.432Z,26.10
2018-02-10T18:38:59.864Z,25.30
2018-02-10T18:41:26.232Z,20.80
2018-02-10T18:43:53.210Z,21.07
2018-02-10T18:46:19.593Z,21.13
2018-02-10T18:48:46.567Z,22.43
2018-02-10T18:51:13.058Z,22.90
2018-02-10T18:53:40.036Z,21.00
2018-02-10T18:56:07.049Z,18.23
2018-02-10T18:58:33.253Z,18.33
2018-02-10T19:00:59.546Z,18.47
2018-02-10T19:03:25.818Z,17.60
2018-02-10T19:05:52.155Z,16.10
2018-02-10T19:08:18.391Z,15.57
2018-02-10T19:10:46.133Z,14.60
2018-02-10T19:13:12.390Z,15.33
2018-02-10T19:15:38.860Z,11.43
2018-02-10T19:18:05.249Z,12.37
2018-02-10T19:20:31.599Z,11.90
2018-02-10T19:22:57.759Z,12.40
2018-02-10T19:25:24.119Z,12.70
2018-02-10T19:27:51.087Z,11.00
2018-02-10T19:30:18.094Z,11.40
2018-02-10T19:32:44.411Z,10.30
2018-02-10T19:35:10.696Z,10.77
2018-02-10T19:37:37.718Z,9.97
2018-02-10T19:40:04.863Z,10.20
2018-02-10T19:42:31.226Z,14.27
2018-02-10T19:44:58.424Z,16.27
2018-02-10T19:47:24.707Z,17.07
2018-02-10T19:49:51.769Z,16.50
2018-02-10T19:52:18.332Z,10.37
2018-02-10T19:54:44.743Z,11.57
2018-02-10T19:57:11.198Z,11.73
2018-02-10T19:59:38.259Z,10.80
2018-02-10T20:02:04.585Z,10.00
2018-02-10T20:04:30.879Z,10.97
2018-02-10T20:06:57.457Z,12.53
2018-02-10T20:09:23.634Z,9.50
2018-02-10T20:11:50.029Z,11.23
2018-02-10T20:14:17.213Z,10.83
2018-02-10T20:16:43.622Z,9.73
2018-02-10T20:19:09.960Z,10.47
2018-02-10T20:21:36.333Z,9.37
2018-02-10T20:24:03.517Z,11.57
2018-02-10T20:26:30.524Z,10.43
2018-02-10T20:28:56.821Z,11.20
2018-02-10T20:31:23.390Z,10.80
2018-02-10T20:33:50.054Z,10.33
2018-02-10T20:36:16.454Z,10.93
2018-02-10T20:38:42.693Z,10.73
2018-02-10T20:41:08.952Z,11.27
2018-02-10T20:43:35.954Z,11.60
2018-02-10T20:46:02.335Z,11.20
2018-02-10T20:48:28.714Z,12.50
2018-02-10T20:50:55.042Z,11.80
2018-02-10T20:56:15.317Z,12.90
2018-02-10T20:58:42.129Z,13.33
2018-02-10T21:01:08.479Z,14.37
2018-02-10T21:03:35.019Z,15.10
2018-02-10T21:06:01.387Z,13.87
2018-02-10T21:08:28.546Z,14.60
2018-02-10T21:10:55.578Z,15.37
2018-02-10T21:13:21.936Z,14.90
2018-02-10T21:15:48.127Z,15.10
2018-02-10T21:18:14.729Z,14.60
2018-02-10T21:20:41.619Z,13.40
2018-02-10T21:23:09.072Z,14.27
2018-02-10T21:25:35.892Z,13.80
2018-02-10T21:28:02.234Z,14.60
2018-02-10T21:30:29.407Z,13.67
2018-02-10T21:32:56.364Z,13.70
2018-02-10T21:35:23.346Z,12.83
2018-02-10T21:37:50.009Z,13.70
2018-02-10T21:40:16.312Z,13.33
2018-02-10T21:42:42.538Z,13.27
2018-02-10T21:45:08.858Z,12.87
2018-02-10T21:47:35.660Z,13.10
2018-02-10T21:50:03.542Z,13.77
2018-02-10T21:52:33.238Z,12.47
2018-02-10T21:54:59.713Z,13.50
2018-02-10T21:57:26.072Z,12.43
2018-02-10T21:59:52.704Z,12.87
2018-02-10T22:02:19.365Z,13.33
2018-02-10T22:04:46.352Z,11.90
2018-02-10T22:07:12.635Z,11.93
2018-02-10T22:09:40.203Z,12.33
2018-02-10T22:12:06.762Z,13.20
2018-02-10T22:14:33.861Z,14.03
2018-02-10T22:17:00.386Z,12.03
2018-02-10T22:19:27.706Z,12.50
2018-02-10T22:21:54.065Z,12.97
2018-02-10T22:24:20.328Z,11.77
2018-02-10T22:26:47.242Z,13.40
2018-02-10T22:29:13.596Z,11.93
2018-02-10T22:31:40.521Z,14.37
2018-02-10T22:34:06.846Z,12.83
2018-02-10T22:36:33.517Z,13.20
2018-02-10T22:39:02.135Z,14.93
2018-02-10T22:41:28.491Z,12.70
2018-02-10T22:43:55.018Z,13.33
2018-02-10T22:46:21.458Z,14.83
2018-02-10T22:48:47.993Z,13.90
2018-02-10T22:51:14.185Z,14.40
2018-02-10T22:53:41.876Z,13.33
2018-02-10T22:56:08.690Z,14.47
2018-02-10T22:58:35.171Z,14.40
2018-02-10T23:01:07.889Z,14.40
2018-02-10T23:03:34.475Z,15.63
2018-02-10T23:06:01.018Z,13.93
2018-02-10T23:08:27.429Z,15.03
2018-02-10T23:10:53.809Z,13.80
2018-02-10T23:13:20.774Z,12.47
2018-02-10T23:15:48.362Z,13.70
2018-02-10T23:18:15.536Z,12.87
2018-02-10T23:20:41.766Z,12.77
2018-02-10T23:23:07.938Z,13.13
2018-02-10T23:25:34.245Z,12.90
2018-02-10T23:28:01.194Z,13.57
2018-02-10T23:30:27.596Z,12.17
2018-02-10T23:32:54.555Z,12.47
2018-02-10T23:35:27.234Z,11.97
2018-02-10T23:37:54.381Z,12.40
2018-02-10T23:40:20.683Z,11.63
2018-02-10T23:42:46.975Z,11.57
2018-02-10T23:45:13.701Z,11.80
2018-02-10T23:47:40.180Z,11.37
2018-02-10T23:50:06.422Z,11.40
2018-02-10T23:52:33.398Z,12.13
2018-02-10T23:55:00.081Z,11.37
2018-02-10T23:57:26.323Z,12.57
2018-02-10T23:59:52.748Z,11.47
